sensor_id;sensor_type;location;lat;lon;timestamp;P1;durP1;ratioP1;P2;durP2;ratioP2
9559;SDS011;4818;50.860;4.648;2023-06-10T00:00:19;5.40;;;4.88;;
9559;SDS011;4818;50.860;4.648;2023-06-10T00:02:45;6.05;;;4.32;;
9559;SDS011;4818;50.860;4.648;2023-06-10T00:05:12;4.57;;;3.95;;
9559;SDS011;4818;50.860;4.648;2023-06-10T00:07:38;6.38;;;4.95;;
9559;SDS011;4818;50.860;4.648;2023-06-10T00:10:06;5.93;;;4.28;;
9559;SDS011;4818;50.860;4.648;2023-06-10T00:12:33;4.72;;;4.32;;
9559;SDS011;4818;50.860;4.648;2023-06-10T00:15:04;5.88;;;4.55;;
9559;SDS011;4818;50.860;4.648;2023-06-10T00:17:31;8.02;;;4.40;;
9559;SDS011;4818;50.860;4.648;2023-06-10T00:19:58;7.18;;;5.40;;
9559;SDS011;4818;50.860;4.648;2023-06-10T00:22:24;6.68;;;4.30;;
9559;SDS011;4818;50.860;4.648;2023-06-10T00:24:54;5.05;;;4.55;;
9559;SDS011;4818;50.860;4.648;2023-06-10T00:27:22;5.63;;;4.60;;
9559;SDS011;4818;50.860;4.648;2023-06-10T00:29:48;4.28;;;3.90;;
9559;SDS011;4818;50.860;4.648;2023-06-10T00:32:14;6.18;;;4.63;;
9559;SDS011;4818;50.860;4.648;2023-06-10T00:34:40;6.45;;;4.05;;
9559;SDS011;4818;50.860;4.648;2023-06-10T00:37:06;4.88;;;4.10;;
9559;SDS011;4818;50.860;4.648;2023-06-10T00:39:33;11.85;;;4.93;;
9559;SDS011;4818;50.860;4.648;2023-06-10T00:41:59;6.03;;;4.53;;
9559;SDS011;4818;50.860;4.648;2023-06-10T00:44:25;5.43;;;4.50;;
9559;SDS011;4818;50.860;4.648;2023-06-10T00:46:51;5.93;;;5.22;;
9559;SDS011;4818;50.860;4.648;2023-06-10T00:49:20;7.63;;;4.90;;
9559;SDS011;4818;50.860;4.648;2023-06-10T00:51:46;6.25;;;5.30;;
9559;SDS011;4818;50.860;4.648;2023-06-10T00:54:13;5.18;;;3.97;;
9559;SDS011;4818;50.860;4.648;2023-06-10T00:56:39;8.05;;;4.63;;
9559;SDS011;4818;50.860;4.648;2023-06-10T00:59:08;6.40;;;4.53;;
9559;SDS011;4818;50.860;4.648;2023-06-10T01:01:34;6.20;;;4.47;;
9559;SDS011;4818;50.860;4.648;2023-06-10T01:04:02;4.75;;;3.95;;
9559;SDS011;4818;50.860;4.648;2023-06-10T01:06:45;7.50;;;4.63;;
9559;SDS011;4818;50.860;4.648;2023-06-10T01:09:25;7.22;;;4.10;;
9559;SDS011;4818;50.860;4.648;2023-06-10T01:11:58;5.90;;;4.25;;
9559;SDS011;4818;50.860;4.648;2023-06-10T01:16:52;5.20;;;4.38;;
9559;SDS011;4818;50.860;4.648;2023-06-10T01:19:18;5.97;;;4.63;;
9559;SDS011;4818;50.860;4.648;2023-06-10T01:21:44;6.60;;;4.57;;
9559;SDS011;4818;50.860;4.648;2023-06-10T01:24:16;5.82;;;4.50;;
9559;SDS011;4818;50.860;4.648;2023-06-10T01:26:44;7.32;;;5.10;;
9559;SDS011;4818;50.860;4.648;2023-06-10T01:29:14;4.95;;;4.45;;
9559;SDS011;4818;50.860;4.648;2023-06-10T01:31:56;5.03;;;4.20;;
9559;SDS011;4818;50.860;4.648;2023-06-10T01:34:26;4.65;;;4.10;;
9559;SDS011;4818;50.860;4.648;2023-06-10T01:36:52;6.13;;;5.07;;
9559;SDS011;4818;50.860;4.648;2023-06-10T01:39:22;6.00;;;5.43;;
9559;SDS011;4818;50.860;4.648;2023-06-10T01:41:50;6.10;;;5.38;;
9559;SDS011;4818;50.860;4.648;2023-06-10T01:44:21;6.10;;;5.50;;
9559;SDS011;4818;50.860;4.648;2023-06-10T01:46:48;6.55;;;4.53;;
9559;SDS011;4818;50.860;4.648;2023-06-10T01:49:14;5.75;;;4.43;;
9559;SDS011;4818;50.860;4.648;2023-06-10T01:51:40;7.00;;;5.40;;
9559;SDS011;4818;50.860;4.648;2023-06-10T01:54:07;5.25;;;4.78;;
9559;SDS011;4818;50.860;4.648;2023-06-10T01:56:33;6.75;;;4.93;;
9559;SDS011;4818;50.860;4.648;2023-06-10T01:58:59;5.95;;;5.35;;
9559;SDS011;4818;50.860;4.648;2023-06-10T02:01:26;7.93;;;4.80;;
9559;SDS011;4818;50.860;4.648;2023-06-10T02:03:52;6.20;;;5.10;;
9559;SDS011;4818;50.860;4.648;2023-06-10T02:06:19;5.25;;;4.80;;
9559;SDS011;4818;50.860;4.648;2023-06-10T02:08:45;6.65;;;4.78;;
9559;SDS011;4818;50.860;4.648;2023-06-10T02:11:11;6.63;;;4.60;;
9559;SDS011;4818;50.860;4.648;2023-06-10T02:13:38;5.25;;;4.38;;
9559;SDS011;4818;50.860;4.648;2023-06-10T02:16:04;7.88;;;5.20;;
9559;SDS011;4818;50.860;4.648;2023-06-10T02:18:34;7.00;;;5.18;;
9559;SDS011;4818;50.860;4.648;2023-06-10T02:21:00;6.07;;;4.80;;
9559;SDS011;4818;50.860;4.648;2023-06-10T02:23:26;6.32;;;5.72;;
9559;SDS011;4818;50.860;4.648;2023-06-10T02:25:53;10.77;;;5.38;;
9559;SDS011;4818;50.860;4.648;2023-06-10T02:28:19;7.88;;;4.95;;
9559;SDS011;4818;50.860;4.648;2023-06-10T02:30:45;6.40;;;5.75;;
9559;SDS011;4818;50.860;4.648;2023-06-10T02:33:11;7.85;;;5.32;;
9559;SDS011;4818;50.860;4.648;2023-06-10T02:35:38;7.40;;;5.63;;
9559;SDS011;4818;50.860;4.648;2023-06-10T02:38:05;9.70;;;5.70;;
9559;SDS011;4818;50.860;4.648;2023-06-10T02:40:31;6.22;;;5.57;;
9559;SDS011;4818;50.860;4.648;2023-06-10T02:42:57;6.38;;;5.68;;
9559;SDS011;4818;50.860;4.648;2023-06-10T02:45:24;9.55;;;6.45;;
9559;SDS011;4818;50.860;4.648;2023-06-10T02:47:50;7.15;;;6.25;;
9559;SDS011;4818;50.860;4.648;2023-06-10T02:50:16;7.15;;;5.55;;
9559;SDS011;4818;50.860;4.648;2023-06-10T02:52:43;5.80;;;5.28;;
9559;SDS011;4818;50.860;4.648;2023-06-10T02:55:09;6.40;;;5.68;;
9559;SDS011;4818;50.860;4.648;2023-06-10T02:57:35;7.88;;;5.82;;
9559;SDS011;4818;50.860;4.648;2023-06-10T03:00:02;6.75;;;5.63;;
9559;SDS011;4818;50.860;4.648;2023-06-10T03:02:34;6.32;;;5.70;;
9559;SDS011;4818;50.860;4.648;2023-06-10T03:05:02;7.93;;;5.53;;
9559;SDS011;4818;50.860;4.648;2023-06-10T03:07:28;8.27;;;6.18;;
9559;SDS011;4818;50.860;4.648;2023-06-10T03:09:55;6.25;;;5.65;;
9559;SDS011;4818;50.860;4.648;2023-06-10T03:12:21;8.00;;;6.93;;
9559;SDS011;4818;50.860;4.648;2023-06-10T03:14:47;8.75;;;6.30;;
9559;SDS011;4818;50.860;4.648;2023-06-10T03:17:13;6.63;;;5.75;;
9559;SDS011;4818;50.860;4.648;2023-06-10T03:19:40;8.88;;;6.53;;
9559;SDS011;4818;50.860;4.648;2023-06-10T03:22:10;7.22;;;6.43;;
9559;SDS011;4818;50.860;4.648;2023-06-10T03:24:36;7.45;;;5.70;;
9559;SDS011;4818;50.860;4.648;2023-06-10T03:27:08;7.20;;;6.35;;
9559;SDS011;4818;50.860;4.648;2023-06-10T03:29:36;6.97;;;6.30;;
9559;SDS011;4818;50.860;4.648;2023-06-10T03:32:02;7.50;;;5.90;;
9559;SDS011;4818;50.860;4.648;2023-06-10T03:34:28;8.02;;;6.75;;
9559;SDS011;4818;50.860;4.648;2023-06-10T03:36:55;6.97;;;6.20;;
9559;SDS011;4818;50.860;4.648;2023-06-10T03:39:22;10.15;;;6.68;;
9559;SDS011;4818;50.860;4.648;2023-06-10T03:41:49;8.60;;;7.65;;
9559;SDS011;4818;50.860;4.648;2023-06-10T03:44:15;8.18;;;6.70;;
9559;SDS011;4818;50.860;4.648;2023-06-10T03:46:41;7.60;;;6.80;;
9559;SDS011;4818;50.860;4.648;2023-06-10T03:49:08;7.75;;;6.68;;
9559;SDS011;4818;50.860;4.648;2023-06-10T03:51:35;8.80;;;6.93;;
9559;SDS011;4818;50.860;4.648;2023-06-10T03:54:01;6.85;;;6.25;;
9559;SDS011;4818;50.860;4.648;2023-06-10T03:56:28;10.65;;;7.25;;
9559;SDS011;4818;50.860;4.648;2023-06-10T03:58:54;7.28;;;6.55;;
9559;SDS011;4818;50.860;4.648;2023-06-10T04:01:20;10.73;;;7.47;;
9559;SDS011;4818;50.860;4.648;2023-06-10T04:03:48;9.35;;;6.20;;
9559;SDS011;4818;50.860;4.648;2023-06-10T04:06:16;9.10;;;7.45;;
9559;SDS011;4818;50.860;4.648;2023-06-10T04:08:42;7.70;;;6.93;;
9559;SDS011;4818;50.860;4.648;2023-06-10T04:11:09;10.00;;;6.85;;
9559;SDS011;4818;50.860;4.648;2023-06-10T04:13:36;10.80;;;7.10;;
9559;SDS011;4818;50.860;4.648;2023-06-10T04:16:02;7.75;;;6.68;;
9559;SDS011;4818;50.860;4.648;2023-06-10T04:18:28;7.57;;;6.82;;
9559;SDS011;4818;50.860;4.648;2023-06-10T04:20:55;11.95;;;7.93;;
9559;SDS011;4818;50.860;4.648;2023-06-10T04:23:22;10.95;;;7.03;;
9559;SDS011;4818;50.860;4.648;2023-06-10T04:25:48;8.57;;;7.18;;
9559;SDS011;4818;50.860;4.648;2023-06-10T04:28:14;8.13;;;7.25;;
9559;SDS011;4818;50.860;4.648;2023-06-10T04:30:40;8.18;;;6.85;;
9559;SDS011;4818;50.860;4.648;2023-06-10T04:33:07;8.38;;;6.63;;
9559;SDS011;4818;50.860;4.648;2023-06-10T04:35:34;7.70;;;6.78;;
9559;SDS011;4818;50.860;4.648;2023-06-10T04:38:00;10.32;;;7.85;;
9559;SDS011;4818;50.860;4.648;2023-06-10T04:40:28;8.55;;;7.13;;
9559;SDS011;4818;50.860;4.648;2023-06-10T04:42:54;7.85;;;6.78;;
9559;SDS011;4818;50.860;4.648;2023-06-10T04:45:21;13.18;;;7.40;;
9559;SDS011;4818;50.860;4.648;2023-06-10T04:47:47;10.20;;;6.70;;
9559;SDS011;4818;50.860;4.648;2023-06-10T04:50:13;7.50;;;6.65;;
9559;SDS011;4818;50.860;4.648;2023-06-10T04:52:41;12.57;;;6.38;;
9559;SDS011;4818;50.860;4.648;2023-06-10T04:55:07;11.82;;;7.80;;
9559;SDS011;4818;50.860;4.648;2023-06-10T04:57:34;7.40;;;6.32;;
9559;SDS011;4818;50.860;4.648;2023-06-10T05:00:00;8.52;;;7.70;;
9559;SDS011;4818;50.860;4.648;2023-06-10T05:02:26;7.65;;;6.20;;
9559;SDS011;4818;50.860;4.648;2023-06-10T05:04:52;10.00;;;8.20;;
9559;SDS011;4818;50.860;4.648;2023-06-10T05:07:20;7.05;;;6.40;;
9559;SDS011;4818;50.860;4.648;2023-06-10T05:09:46;7.80;;;6.57;;
9559;SDS011;4818;50.860;4.648;2023-06-10T05:12:12;7.80;;;6.50;;
9559;SDS011;4818;50.860;4.648;2023-06-10T05:14:38;9.20;;;6.88;;
9559;SDS011;4818;50.860;4.648;2023-06-10T05:17:05;8.30;;;6.82;;
9559;SDS011;4818;50.860;4.648;2023-06-10T05:19:31;10.48;;;6.65;;
9559;SDS011;4818;50.860;4.648;2023-06-10T05:21:58;8.15;;;6.82;;
9559;SDS011;4818;50.860;4.648;2023-06-10T05:24:24;8.82;;;6.70;;
9559;SDS011;4818;50.860;4.648;2023-06-10T05:26:50;9.43;;;6.45;;
9559;SDS011;4818;50.860;4.648;2023-06-10T05:29:16;9.15;;;6.40;;
9559;SDS011;4818;50.860;4.648;2023-06-10T05:31:42;8.93;;;6.35;;
9559;SDS011;4818;50.860;4.648;2023-06-10T05:34:09;11.38;;;7.20;;
9559;SDS011;4818;50.860;4.648;2023-06-10T05:36:35;8.68;;;6.45;;
9559;SDS011;4818;50.860;4.648;2023-06-10T05:39:01;10.30;;;6.38;;
9559;SDS011;4818;50.860;4.648;2023-06-10T05:41:28;7.50;;;6.32;;
9559;SDS011;4818;50.860;4.648;2023-06-10T05:43:54;8.10;;;6.40;;
9559;SDS011;4818;50.860;4.648;2023-06-10T05:46:21;7.78;;;6.18;;
9559;SDS011;4818;50.860;4.648;2023-06-10T05:48:47;7.57;;;6.72;;
9559;SDS011;4818;50.860;4.648;2023-06-10T05:51:13;8.70;;;6.75;;
9559;SDS011;4818;50.860;4.648;2023-06-10T05:53:40;11.43;;;6.40;;
9559;SDS011;4818;50.860;4.648;2023-06-10T05:56:06;8.93;;;5.82;;
9559;SDS011;4818;50.860;4.648;2023-06-10T05:58:32;6.22;;;5.63;;
9559;SDS011;4818;50.860;4.648;2023-06-10T06:00:58;8.65;;;6.55;;
9559;SDS011;4818;50.860;4.648;2023-06-10T06:03:25;9.68;;;6.05;;
9559;SDS011;4818;50.860;4.648;2023-06-10T06:05:53;8.10;;;6.72;;
9559;SDS011;4818;50.860;4.648;2023-06-10T06:08:19;11.32;;;6.47;;
9559;SDS011;4818;50.860;4.648;2023-06-10T06:10:46;7.60;;;5.63;;
9559;SDS011;4818;50.860;4.648;2023-06-10T06:13:13;7.15;;;5.72;;
9559;SDS011;4818;50.860;4.648;2023-06-10T06:15:39;9.93;;;5.38;;
9559;SDS011;4818;50.860;4.648;2023-06-10T06:18:05;9.32;;;5.68;;
9559;SDS011;4818;50.860;4.648;2023-06-10T06:20:32;6.20;;;5.65;;
9559;SDS011;4818;50.860;4.648;2023-06-10T06:22:58;8.73;;;6.05;;
9559;SDS011;4818;50.860;4.648;2023-06-10T06:25:25;6.70;;;5.50;;
9559;SDS011;4818;50.860;4.648;2023-06-10T06:27:52;7.45;;;5.28;;
9559;SDS011;4818;50.860;4.648;2023-06-10T06:30:18;6.75;;;4.80;;
9559;SDS011;4818;50.860;4.648;2023-06-10T06:32:45;9.50;;;6.07;;
9559;SDS011;4818;50.860;4.648;2023-06-10T06:35:11;5.20;;;4.70;;
9559;SDS011;4818;50.860;4.648;2023-06-10T06:37:37;5.63;;;4.97;;
9559;SDS011;4818;50.860;4.648;2023-06-10T06:40:03;5.38;;;4.72;;
9559;SDS011;4818;50.860;4.648;2023-06-10T06:42:30;7.35;;;5.07;;
9559;SDS011;4818;50.860;4.648;2023-06-10T06:44:56;5.28;;;4.78;;
9559;SDS011;4818;50.860;4.648;2023-06-10T06:47:23;7.03;;;5.28;;
9559;SDS011;4818;50.860;4.648;2023-06-10T06:49:49;7.80;;;5.53;;
9559;SDS011;4818;50.860;4.648;2023-06-10T06:52:16;5.75;;;5.15;;
9559;SDS011;4818;50.860;4.648;2023-06-10T06:54:42;7.03;;;5.15;;
9559;SDS011;4818;50.860;4.648;2023-06-10T06:57:09;6.40;;;4.68;;
9559;SDS011;4818;50.860;4.648;2023-06-10T06:59:35;5.55;;;5.05;;
9559;SDS011;4818;50.860;4.648;2023-06-10T07:02:02;4.53;;;4.13;;
9559;SDS011;4818;50.860;4.648;2023-06-10T07:04:28;6.03;;;4.70;;
9559;SDS011;4818;50.860;4.648;2023-06-10T07:06:55;4.70;;;4.30;;
9559;SDS011;4818;50.860;4.648;2023-06-10T07:09:21;5.43;;;4.93;;
9559;SDS011;4818;50.860;4.648;2023-06-10T07:11:47;13.65;;;4.80;;
9559;SDS011;4818;50.860;4.648;2023-06-10T07:14:14;5.18;;;4.68;;
9559;SDS011;4818;50.860;4.648;2023-06-10T07:16:40;5.90;;;4.45;;
9559;SDS011;4818;50.860;4.648;2023-06-10T07:19:06;5.38;;;4.72;;
9559;SDS011;4818;50.860;4.648;2023-06-10T07:21:32;4.43;;;3.97;;
9559;SDS011;4818;50.860;4.648;2023-06-10T07:23:59;4.38;;;3.97;;
9559;SDS011;4818;50.860;4.648;2023-06-10T07:26:25;8.35;;;4.82;;
9559;SDS011;4818;50.860;4.648;2023-06-10T07:28:51;7.75;;;4.40;;
9559;SDS011;4818;50.860;4.648;2023-06-10T07:31:18;5.93;;;3.78;;
9559;SDS011;4818;50.860;4.648;2023-06-10T07:33:44;3.88;;;3.45;;
9559;SDS011;4818;50.860;4.648;2023-06-10T07:36:10;6.13;;;4.13;;
9559;SDS011;4818;50.860;4.648;2023-06-10T07:38:36;4.82;;;4.30;;
9559;SDS011;4818;50.860;4.648;2023-06-10T07:41:03;4.88;;;3.92;;
9559;SDS011;4818;50.860;4.648;2023-06-10T07:43:29;4.35;;;4.03;;
9559;SDS011;4818;50.860;4.648;2023-06-10T07:45:55;3.88;;;3.47;;
9559;SDS011;4818;50.860;4.648;2023-06-10T07:48:22;4.15;;;3.75;;
9559;SDS011;4818;50.860;4.648;2023-06-10T07:50:48;4.63;;;3.92;;
9559;SDS011;4818;50.860;4.648;2023-06-10T07:53:15;4.50;;;3.20;;
9559;SDS011;4818;50.860;4.648;2023-06-10T07:55:41;4.97;;;3.30;;
9559;SDS011;4818;50.860;4.648;2023-06-10T07:58:07;4.15;;;3.75;;
9559;SDS011;4818;50.860;4.648;2023-06-10T08:00:33;4.25;;;3.85;;
9559;SDS011;4818;50.860;4.648;2023-06-10T08:03:00;3.63;;;3.30;;
9559;SDS011;4818;50.860;4.648;2023-06-10T08:05:26;4.07;;;3.72;;
9559;SDS011;4818;50.860;4.648;2023-06-10T08:07:52;4.65;;;4.20;;
9559;SDS011;4818;50.860;4.648;2023-06-10T08:10:18;4.70;;;3.28;;
9559;SDS011;4818;50.860;4.648;2023-06-10T08:12:44;4.75;;;3.47;;
9559;SDS011;4818;50.860;4.648;2023-06-10T08:15:11;4.55;;;3.03;;
9559;SDS011;4818;50.860;4.648;2023-06-10T08:17:37;4.30;;;3.58;;
9559;SDS011;4818;50.860;4.648;2023-06-10T08:20:04;4.63;;;3.13;;
9559;SDS011;4818;50.860;4.648;2023-06-10T08:22:31;3.70;;;2.67;;
9559;SDS011;4818;50.860;4.648;2023-06-10T08:24:58;4.20;;;3.38;;
9559;SDS011;4818;50.860;4.648;2023-06-10T08:27:25;2.80;;;2.60;;
9559;SDS011;4818;50.860;4.648;2023-06-10T08:29:51;5.40;;;2.90;;
9559;SDS011;4818;50.860;4.648;2023-06-10T08:32:17;3.40;;;3.13;;
9559;SDS011;4818;50.860;4.648;2023-06-10T08:34:43;3.92;;;2.83;;
9559;SDS011;4818;50.860;4.648;2023-06-10T08:37:09;4.20;;;2.85;;
9559;SDS011;4818;50.860;4.648;2023-06-10T08:39:36;6.90;;;3.03;;
9559;SDS011;4818;50.860;4.648;2023-06-10T08:44:32;4.70;;;2.40;;
9559;SDS011;4818;50.860;4.648;2023-06-10T08:47:06;4.55;;;2.80;;
9559;SDS011;4818;50.860;4.648;2023-06-10T08:49:34;3.25;;;2.30;;
9559;SDS011;4818;50.860;4.648;2023-06-10T08:52:04;2.92;;;2.70;;
9559;SDS011;4818;50.860;4.648;2023-06-10T08:54:33;3.15;;;1.83;;
9559;SDS011;4818;50.860;4.648;2023-06-10T08:57:06;3.38;;;1.90;;
9559;SDS011;4818;50.860;4.648;2023-06-10T08:59:32;2.95;;;2.15;;
9559;SDS011;4818;50.860;4.648;2023-06-10T09:01:59;2.55;;;2.35;;
9559;SDS011;4818;50.860;4.648;2023-06-10T09:04:25;2.53;;;2.22;;
9559;SDS011;4818;50.860;4.648;2023-06-10T09:06:52;4.65;;;2.13;;
9559;SDS011;4818;50.860;4.648;2023-06-10T09:09:19;2.53;;;2.33;;
9559;SDS011;4818;50.860;4.648;2023-06-10T09:11:46;2.53;;;2.28;;
9559;SDS011;4818;50.860;4.648;2023-06-10T09:14:12;2.53;;;2.17;;
9559;SDS011;4818;50.860;4.648;2023-06-10T09:16:38;3.90;;;2.28;;
9559;SDS011;4818;50.860;4.648;2023-06-10T09:19:05;3.63;;;2.15;;
9559;SDS011;4818;50.860;4.648;2023-06-10T09:21:33;3.60;;;2.43;;
9559;SDS011;4818;50.860;4.648;2023-06-10T09:24:01;5.53;;;2.30;;
9559;SDS011;4818;50.860;4.648;2023-06-10T09:26:28;3.17;;;2.65;;
9559;SDS011;4818;50.860;4.648;2023-06-10T09:29:04;2.53;;;2.33;;
9559;SDS011;4818;50.860;4.648;2023-06-10T09:31:31;3.65;;;2.67;;
9559;SDS011;4818;50.860;4.648;2023-06-10T09:34:14;3.08;;;2.78;;
9559;SDS011;4818;50.860;4.648;2023-06-10T09:36:42;4.00;;;3.35;;
9559;SDS011;4818;50.860;4.648;2023-06-10T09:39:15;5.85;;;2.40;;
9559;SDS011;4818;50.860;4.648;2023-06-10T09:41:42;4.68;;;2.88;;
9559;SDS011;4818;50.860;4.648;2023-06-10T09:44:11;3.90;;;2.40;;
9559;SDS011;4818;50.860;4.648;2023-06-10T09:46:38;3.03;;;2.83;;
9559;SDS011;4818;50.860;4.648;2023-06-10T09:49:04;3.30;;;2.65;;
9559;SDS011;4818;50.860;4.648;2023-06-10T09:51:31;3.47;;;3.17;;
9559;SDS011;4818;50.860;4.648;2023-06-10T09:53:57;3.17;;;2.85;;
9559;SDS011;4818;50.860;4.648;2023-06-10T09:56:34;2.72;;;2.17;;
9559;SDS011;4818;50.860;4.648;2023-06-10T09:59:01;6.10;;;2.60;;
9559;SDS011;4818;50.860;4.648;2023-06-10T10:01:28;3.10;;;2.85;;
9559;SDS011;4818;50.860;4.648;2023-06-10T10:03:54;10.00;;;2.88;;
9559;SDS011;4818;50.860;4.648;2023-06-10T10:06:20;2.72;;;2.53;;
9559;SDS011;4818;50.860;4.648;2023-06-10T10:08:47;4.65;;;2.60;;
9559;SDS011;4818;50.860;4.648;2023-06-10T10:11:14;3.95;;;2.92;;
9559;SDS011;4818;50.860;4.648;2023-06-10T10:13:42;4.00;;;2.60;;
9559;SDS011;4818;50.860;4.648;2023-06-10T10:18:39;4.80;;;3.03;;
9559;SDS011;4818;50.860;4.648;2023-06-10T10:21:06;2.92;;;2.72;;
9559;SDS011;4818;50.860;4.648;2023-06-10T10:23:38;4.07;;;2.50;;
9559;SDS011;4818;50.860;4.648;2023-06-10T10:26:07;3.50;;;3.20;;
9559;SDS011;4818;50.860;4.648;2023-06-10T10:28:41;3.70;;;2.60;;
9559;SDS011;4818;50.860;4.648;2023-06-10T10:31:08;3.03;;;2.83;;
9559;SDS011;4818;50.860;4.648;2023-06-10T10:36:10;5.85;;;2.92;;
9559;SDS011;4818;50.860;4.648;2023-06-10T10:38:36;3.95;;;3.00;;
9559;SDS011;4818;50.860;4.648;2023-06-10T10:41:03;4.13;;;2.72;;
9559;SDS011;4818;50.860;4.648;2023-06-10T10:43:30;3.28;;;2.10;;
9559;SDS011;4818;50.860;4.648;2023-06-10T10:46:00;2.20;;;1.92;;
9559;SDS011;4818;50.860;4.648;2023-06-10T10:48:27;2.63;;;2.05;;
9559;SDS011;4818;50.860;4.648;2023-06-10T10:50:59;4.93;;;2.42;;
9559;SDS011;4818;50.860;4.648;2023-06-10T10:53:29;4.38;;;2.78;;
9559;SDS011;4818;50.860;4.648;2023-06-10T10:55:59;4.72;;;2.83;;
9559;SDS011;4818;50.860;4.648;2023-06-10T10:58:25;4.65;;;2.47;;
9559;SDS011;4818;50.860;4.648;2023-06-10T11:00:51;1.80;;;1.70;;
9559;SDS011;4818;50.860;4.648;2023-06-10T11:03:18;4.30;;;2.75;;
9559;SDS011;4818;50.860;4.648;2023-06-10T11:05:46;2.65;;;2.45;;
9559;SDS011;4818;50.860;4.648;2023-06-10T11:08:14;3.63;;;2.30;;
9559;SDS011;4818;50.860;4.648;2023-06-10T11:10:50;4.28;;;2.63;;
9559;SDS011;4818;50.860;4.648;2023-06-10T11:13:20;4.10;;;2.42;;
9559;SDS011;4818;50.860;4.648;2023-06-10T11:15:50;6.45;;;2.95;;
9559;SDS011;4818;50.860;4.648;2023-06-10T11:26:13;3.45;;;3.15;;
9559;SDS011;4818;50.860;4.648;2023-06-10T11:31:48;6.10;;;2.25;;
9559;SDS011;4818;50.860;4.648;2023-06-10T11:34:05;3.72;;;2.38;;
9559;SDS011;4818;50.860;4.648;2023-06-10T11:36:34;3.45;;;3.15;;
9559;SDS011;4818;50.860;4.648;2023-06-10T11:39:02;5.00;;;3.03;;
9559;SDS011;4818;50.860;4.648;2023-06-10T11:41:29;3.03;;;2.78;;
9559;SDS011;4818;50.860;4.648;2023-06-10T11:44:17;5.43;;;2.92;;
9559;SDS011;4818;50.860;4.648;2023-06-10T11:46:47;4.30;;;2.72;;
9559;SDS011;4818;50.860;4.648;2023-06-10T11:49:14;2.67;;;2.15;;
9559;SDS011;4818;50.860;4.648;2023-06-10T11:51:40;4.15;;;2.80;;
9559;SDS011;4818;50.860;4.648;2023-06-10T11:54:14;5.95;;;2.63;;
9559;SDS011;4818;50.860;4.648;2023-06-10T11:56:41;2.70;;;2.50;;
9559;SDS011;4818;50.860;4.648;2023-06-10T11:59:07;6.18;;;2.65;;
9559;SDS011;4818;50.860;4.648;2023-06-10T12:01:34;3.65;;;2.25;;
9559;SDS011;4818;50.860;4.648;2023-06-10T12:11:42;2.47;;;2.17;;
9559;SDS011;4818;50.860;4.648;2023-06-10T12:14:09;3.10;;;2.80;;
9559;SDS011;4818;50.860;4.648;2023-06-10T12:16:35;3.30;;;3.00;;
9559;SDS011;4818;50.860;4.648;2023-06-10T12:19:02;4.85;;;2.60;;
9559;SDS011;4818;50.860;4.648;2023-06-10T12:21:29;3.67;;;2.63;;
9559;SDS011;4818;50.860;4.648;2023-06-10T12:24:06;3.55;;;3.25;;
9559;SDS011;4818;50.860;4.648;2023-06-10T12:26:45;2.90;;;2.60;;
9559;SDS011;4818;50.860;4.648;2023-06-10T12:29:14;4.50;;;3.00;;
9559;SDS011;4818;50.860;4.648;2023-06-10T12:39:23;3.92;;;2.67;;
9559;SDS011;4818;50.860;4.648;2023-06-10T12:41:50;5.88;;;3.53;;
9559;SDS011;4818;50.860;4.648;2023-06-10T12:44:16;5.70;;;2.80;;
9559;SDS011;4818;50.860;4.648;2023-06-10T12:46:43;4.18;;;3.03;;
9559;SDS011;4818;50.860;4.648;2023-06-10T12:49:18;3.47;;;2.85;;
9559;SDS011;4818;50.860;4.648;2023-06-10T12:51:45;4.20;;;2.83;;
9559;SDS011;4818;50.860;4.648;2023-06-10T12:54:11;4.45;;;2.90;;
9559;SDS011;4818;50.860;4.648;2023-06-10T12:56:38;8.02;;;2.70;;
9559;SDS011;4818;50.860;4.648;2023-06-10T12:59:04;3.97;;;2.78;;
9559;SDS011;4818;50.860;4.648;2023-06-10T13:01:31;4.75;;;3.20;;
9559;SDS011;4818;50.860;4.648;2023-06-10T13:03:58;2.92;;;2.72;;
9559;SDS011;4818;50.860;4.648;2023-06-10T13:06:25;5.28;;;3.08;;
9559;SDS011;4818;50.860;4.648;2023-06-10T13:08:51;4.40;;;2.83;;
9559;SDS011;4818;50.860;4.648;2023-06-10T13:11:17;3.92;;;2.80;;
9559;SDS011;4818;50.860;4.648;2023-06-10T13:13:44;4.97;;;3.00;;
9559;SDS011;4818;50.860;4.648;2023-06-10T13:16:11;5.40;;;3.05;;
9559;SDS011;4818;50.860;4.648;2023-06-10T13:18:37;5.00;;;2.92;;
9559;SDS011;4818;50.860;4.648;2023-06-10T13:21:04;7.78;;;3.72;;
9559;SDS011;4818;50.860;4.648;2023-06-10T13:23:30;8.20;;;3.40;;
9559;SDS011;4818;50.860;4.648;2023-06-10T13:25:57;6.15;;;2.90;;
9559;SDS011;4818;50.860;4.648;2023-06-10T13:28:23;9.73;;;3.35;;
9559;SDS011;4818;50.860;4.648;2023-06-10T13:30:50;3.33;;;2.92;;
9559;SDS011;4818;50.860;4.648;2023-06-10T13:33:16;4.05;;;3.05;;
9559;SDS011;4818;50.860;4.648;2023-06-10T13:35:43;3.28;;;2.97;;
9559;SDS011;4818;50.860;4.648;2023-06-10T13:38:09;4.25;;;3.10;;
9559;SDS011;4818;50.860;4.648;2023-06-10T13:40:36;3.30;;;3.03;;
9559;SDS011;4818;50.860;4.648;2023-06-10T13:43:02;3.90;;;3.53;;
9559;SDS011;4818;50.860;4.648;2023-06-10T13:45:28;3.70;;;3.28;;
9559;SDS011;4818;50.860;4.648;2023-06-10T13:47:55;4.80;;;3.03;;
9559;SDS011;4818;50.860;4.648;2023-06-10T13:50:21;4.13;;;3.13;;
9559;SDS011;4818;50.860;4.648;2023-06-10T13:52:48;3.63;;;2.90;;
9559;SDS011;4818;50.860;4.648;2023-06-10T13:55:14;4.65;;;3.53;;
9559;SDS011;4818;50.860;4.648;2023-06-10T13:57:41;7.65;;;3.47;;
9559;SDS011;4818;50.860;4.648;2023-06-10T14:00:08;5.05;;;3.50;;
9559;SDS011;4818;50.860;4.648;2023-06-10T14:02:35;4.15;;;3.20;;
9559;SDS011;4818;50.860;4.648;2023-06-10T14:05:02;3.17;;;2.75;;
9559;SDS011;4818;50.860;4.648;2023-06-10T14:07:30;4.28;;;3.70;;
9559;SDS011;4818;50.860;4.648;2023-06-10T14:09:56;3.97;;;3.58;;
9559;SDS011;4818;50.860;4.648;2023-06-10T14:12:23;3.28;;;2.97;;
9559;SDS011;4818;50.860;4.648;2023-06-10T14:14:50;4.85;;;3.38;;
9559;SDS011;4818;50.860;4.648;2023-06-10T14:17:16;4.30;;;3.58;;
9559;SDS011;4818;50.860;4.648;2023-06-10T14:19:42;4.00;;;2.92;;
9559;SDS011;4818;50.860;4.648;2023-06-10T14:22:08;5.47;;;2.95;;
9559;SDS011;4818;50.860;4.648;2023-06-10T14:24:35;4.15;;;3.15;;
9559;SDS011;4818;50.860;4.648;2023-06-10T14:27:02;5.60;;;3.15;;
9559;SDS011;4818;50.860;4.648;2023-06-10T14:29:29;4.63;;;3.13;;
9559;SDS011;4818;50.860;4.648;2023-06-10T14:31:56;3.97;;;3.58;;
9559;SDS011;4818;50.860;4.648;2023-06-10T14:34:23;7.35;;;3.25;;
9559;SDS011;4818;50.860;4.648;2023-06-10T14:36:53;3.30;;;3.00;;
9559;SDS011;4818;50.860;4.648;2023-06-10T14:39:20;5.22;;;3.00;;
9559;SDS011;4818;50.860;4.648;2023-06-10T14:41:46;3.17;;;2.88;;
9559;SDS011;4818;50.860;4.648;2023-06-10T14:44:12;5.50;;;3.35;;
9559;SDS011;4818;50.860;4.648;2023-06-10T14:46:39;5.25;;;3.50;;
9559;SDS011;4818;50.860;4.648;2023-06-10T14:49:05;4.40;;;3.08;;
9559;SDS011;4818;50.860;4.648;2023-06-10T14:51:31;5.45;;;3.20;;
9559;SDS011;4818;50.860;4.648;2023-06-10T14:53:57;5.63;;;3.17;;
9559;SDS011;4818;50.860;4.648;2023-06-10T14:56:24;3.50;;;3.17;;
9559;SDS011;4818;50.860;4.648;2023-06-10T14:58:51;6.07;;;3.65;;
9559;SDS011;4818;50.860;4.648;2023-06-10T15:01:17;6.30;;;3.13;;
9559;SDS011;4818;50.860;4.648;2023-06-10T15:03:44;5.25;;;3.00;;
9559;SDS011;4818;50.860;4.648;2023-06-10T15:06:10;4.63;;;2.75;;
9559;SDS011;4818;50.860;4.648;2023-06-10T15:08:36;7.43;;;3.13;;
9559;SDS011;4818;50.860;4.648;2023-06-10T15:11:02;5.53;;;3.42;;
9559;SDS011;4818;50.860;4.648;2023-06-10T15:13:29;5.75;;;3.10;;
9559;SDS011;4818;50.860;4.648;2023-06-10T15:16:00;5.32;;;3.33;;
9559;SDS011;4818;50.860;4.648;2023-06-10T15:18:26;3.28;;;2.97;;
9559;SDS011;4818;50.860;4.648;2023-06-10T15:20:53;4.65;;;3.05;;
9559;SDS011;4818;50.860;4.648;2023-06-10T15:23:19;3.38;;;3.13;;
9559;SDS011;4818;50.860;4.648;2023-06-10T15:25:46;6.20;;;3.85;;
9559;SDS011;4818;50.860;4.648;2023-06-10T15:28:12;4.05;;;3.15;;
9559;SDS011;4818;50.860;4.648;2023-06-10T15:30:38;4.00;;;2.95;;
9559;SDS011;4818;50.860;4.648;2023-06-10T15:33:05;5.05;;;3.28;;
9559;SDS011;4818;50.860;4.648;2023-06-10T15:35:32;3.38;;;3.08;;
9559;SDS011;4818;50.860;4.648;2023-06-10T15:37:58;3.63;;;3.17;;
9559;SDS011;4818;50.860;4.648;2023-06-10T15:40:24;6.95;;;3.47;;
9559;SDS011;4818;50.860;4.648;2023-06-10T15:42:51;5.25;;;3.60;;
9559;SDS011;4818;50.860;4.648;2023-06-10T15:45:17;4.25;;;3.05;;
9559;SDS011;4818;50.860;4.648;2023-06-10T15:47:44;5.20;;;3.58;;
9559;SDS011;4818;50.860;4.648;2023-06-10T15:50:10;5.93;;;3.30;;